createdAt,value
2022-10-21T00:01:10.830Z,100492.53
2022-10-21T00:03:39.784Z,100495.00
2022-10-21T00:06:09.339Z,100484.97
2022-10-21T00:08:40.274Z,100483.59
2022-10-21T00:11:10.395Z,100482.31
2022-10-21T00:13:39.765Z,100492.34
2022-10-21T00:16:10.520Z,100476.09
2022-10-21T00:18:40.503Z,100472.75
2022-10-21T00:21:10.716Z,100483.03
2022-10-21T00:23:40.914Z,100487.94
2022-10-21T00:26:09.614Z,100486.81
2022-10-21T00:28:37.908Z,100488.47
2022-10-21T00:31:08.834Z,100490.31
2022-10-21T00:33:37.865Z,100496.94
2022-10-21T00:36:08.237Z,100492.25
2022-10-21T00:38:37.453Z,100499.31
2022-10-21T00:41:07.578Z,100498.84
2022-10-21T00:43:55.178Z,100488.25
2022-10-21T00:46:30.820Z,100477.78
2022-10-21T00:49:01.612Z,100480.75
2022-10-21T00:51:31.641Z,100489.63
2022-10-21T00:54:01.961Z,100494.13
2022-10-21T00:56:35.579Z,100483.09
2022-10-21T00:59:06.045Z,100488.34
2022-10-21T01:01:34.674Z,100485.97
2022-10-21T01:04:03.955Z,100480.84
2022-10-21T01:06:33.152Z,100476.97
2022-10-21T01:09:02.148Z,100478.31
2022-10-21T01:11:42.340Z,100472.41
2022-10-21T01:14:43.680Z,100472.81
2022-10-21T01:17:44.589Z,100470.88
2022-10-21T01:20:45.252Z,100475.81
2022-10-21T01:27:21.583Z,100461.84
2022-10-21T01:30:18.376Z,100463.72
2022-10-21T01:33:14.878Z,100462.47
2022-10-21T01:35:50.468Z,100450.66
2022-10-21T01:38:25.830Z,100448.34
2022-10-21T01:41:00.609Z,100444.53
2022-10-21T01:43:38.444Z,100440.88
2022-10-21T01:46:13.217Z,100440.00
2022-10-21T01:48:48.806Z,100427.03
2022-10-21T01:51:19.878Z,100428.88
2022-10-21T01:53:53.631Z,100426.28
2022-10-21T01:56:23.882Z,100427.94
2022-10-21T01:58:54.163Z,100426.56
2022-10-21T02:01:24.775Z,100424.88
2022-10-21T02:04:02.135Z,100418.19
2022-10-21T02:06:30.780Z,100422.88
2022-10-21T02:08:59.169Z,100416.22
2022-10-21T02:11:28.412Z,100405.03
2022-10-21T02:14:03.754Z,100408.28
2022-10-21T02:16:37.513Z,100394.91
2022-10-21T02:19:14.619Z,100395.22
2022-10-21T02:21:44.420Z,100390.63
2022-10-21T02:24:20.877Z,100390.66
2022-10-21T02:26:49.363Z,100392.63
2022-10-21T02:29:22.601Z,100379.56
2022-10-21T02:32:14.886Z,100380.53
2022-10-21T02:35:01.218Z,100382.41
2022-10-21T02:40:16.225Z,100378.38
2022-10-21T02:42:49.042Z,100376.69
2022-10-21T02:45:18.737Z,100371.38
2022-10-21T02:47:50.736Z,100375.38
2022-10-21T02:50:20.884Z,100375.56
2022-10-21T02:52:49.427Z,100370.94
2022-10-21T02:55:18.073Z,100373.66
2022-10-21T02:57:46.284Z,100381.16
2022-10-21T03:00:16.088Z,100390.41
2022-10-21T03:02:44.269Z,100380.06
2022-10-21T03:05:13.004Z,100376.88
2022-10-21T03:07:42.584Z,100377.19
2022-10-21T03:10:11.201Z,100376.41
2022-10-21T03:12:39.398Z,100384.09
2022-10-21T03:15:09.120Z,100368.69
2022-10-21T03:17:37.660Z,100360.63
2022-10-21T03:20:07.171Z,100361.22
2022-10-21T03:22:35.596Z,100368.19
2022-10-21T03:25:06.796Z,100365.38
2022-10-21T03:27:35.157Z,100376.31
2022-10-21T03:30:03.724Z,100378.50
2022-10-21T03:32:32.023Z,100380.13
2022-10-21T03:35:00.273Z,100375.47
2022-10-21T03:37:28.582Z,100386.63
2022-10-21T03:39:56.749Z,100388.56
2022-10-21T03:42:26.261Z,100379.75
2022-10-21T03:44:54.422Z,100374.41
2022-10-21T03:47:22.618Z,100379.75
2022-10-21T03:49:50.805Z,100380.63
2022-10-21T03:52:19.030Z,100373.16
2022-10-21T03:54:47.509Z,100369.09
2022-10-21T03:57:15.961Z,100364.84
2022-10-21T03:59:45.766Z,100364.16
2022-10-21T04:02:14.264Z,100372.09
2022-10-21T04:04:42.735Z,100368.94
2022-10-21T04:07:11.391Z,100375.03
2022-10-21T04:09:39.558Z,100369.47
2022-10-21T04:12:07.776Z,100375.59
2022-10-21T04:14:36.141Z,100373.63
2022-10-21T04:17:07.868Z,100361.75
2022-10-21T04:19:36.347Z,100363.81
2022-10-21T04:22:04.829Z,100373.22
2022-10-21T04:24:32.996Z,100370.34
2022-10-21T04:27:01.136Z,100369.13
2022-10-21T04:29:29.605Z,100363.63
2022-10-21T04:31:58.152Z,100368.88
2022-10-21T04:34:28.040Z,100365.63
2022-10-21T04:36:59.782Z,100360.50
2022-10-21T04:39:30.838Z,100371.06
2022-10-21T04:41:59.467Z,100364.91
2022-10-21T04:44:27.757Z,100370.28
2022-10-21T04:46:56.000Z,100367.53
2022-10-21T04:49:24.268Z,100374.69
2022-10-21T04:51:53.785Z,100365.72
2022-10-21T04:54:21.946Z,100356.38
2022-10-21T04:56:50.095Z,100358.34
2022-10-21T04:59:18.485Z,100357.41
2022-10-21T05:01:46.654Z,100361.41
2022-10-21T05:04:14.881Z,100363.38
2022-10-21T05:06:43.077Z,100363.53
2022-10-21T05:09:12.659Z,100360.47
2022-10-21T05:11:40.840Z,100359.06
2022-10-21T05:14:09.066Z,100357.44
2022-10-21T05:16:37.303Z,100361.28
2022-10-21T05:19:05.486Z,100356.31
2022-10-21T05:21:33.645Z,100351.59
2022-10-21T05:24:01.939Z,100350.91
2022-10-21T05:26:31.427Z,100344.69
2022-10-21T05:29:00.027Z,100338.56
2022-10-21T05:31:28.534Z,100341.09
2022-10-21T05:33:56.699Z,100339.69
2022-10-21T05:36:24.940Z,100332.19
2022-10-21T05:38:53.799Z,100346.09
2022-10-21T05:41:22.369Z,100329.69
2022-10-21T05:43:51.917Z,100331.59
2022-10-21T05:46:20.212Z,100336.94
2022-10-21T05:51:25.472Z,100317.97
2022-10-21T05:53:53.979Z,100313.78
2022-10-21T05:56:23.012Z,100311.75
2022-10-21T05:58:52.522Z,100306.72
2022-10-21T06:01:20.761Z,100299.41
2022-10-21T06:03:49.323Z,100315.84
2022-10-21T06:06:17.793Z,100308.47
2022-10-21T06:08:46.296Z,100304.47
2022-10-21T06:11:17.644Z,100315.44
2022-10-21T06:13:46.258Z,100309.09
2022-10-21T06:16:17.268Z,100310.75
2022-10-21T06:18:45.813Z,100313.34
2022-10-21T06:21:15.110Z,100312.56
2022-10-21T06:23:43.792Z,100309.41
2022-10-21T06:26:14.753Z,100315.50
2022-10-21T06:28:45.119Z,100316.00
2022-10-21T06:31:18.424Z,100321.34
2022-10-21T06:33:47.066Z,100307.69
2022-10-21T06:36:15.717Z,100310.22
2022-10-21T06:38:44.434Z,100309.03
2022-10-21T06:41:15.406Z,100314.25
2022-10-21T06:43:44.171Z,100308.47
2022-10-21T06:46:14.992Z,100304.03
2022-10-21T06:48:44.601Z,100312.13
2022-10-21T06:51:16.881Z,100329.34
2022-10-21T06:53:45.989Z,100322.44
2022-10-21T06:56:17.430Z,100327.16
2022-10-21T06:58:48.141Z,100337.75
2022-10-21T07:01:33.556Z,100334.69
2022-10-21T07:04:06.072Z,100324.88
2022-10-21T07:06:34.656Z,100329.69
2022-10-21T07:09:03.382Z,100331.56
2022-10-21T07:11:31.628Z,100324.91
2022-10-21T07:14:01.618Z,100333.22
2022-10-21T07:16:32.600Z,100325.91
2022-10-21T07:19:01.311Z,100335.53
2022-10-21T07:21:32.286Z,100347.75
2022-10-21T07:24:01.478Z,100352.44
2022-10-21T07:26:31.952Z,100351.38
2022-10-21T07:29:01.063Z,100366.34
2022-10-21T07:31:32.552Z,100366.16
2022-10-21T07:34:01.236Z,100380.59
2022-10-21T07:36:34.285Z,100395.88
2022-10-21T07:39:05.765Z,100390.53
2022-10-21T07:41:37.230Z,100393.91
2022-10-21T07:44:06.114Z,100401.75
2022-10-21T07:46:34.812Z,100399.53
2022-10-21T07:49:03.050Z,100394.50
2022-10-21T07:51:33.072Z,100387.81
2022-10-21T07:54:02.649Z,100384.50
2022-10-21T07:56:33.822Z,100389.69
2022-10-21T07:59:02.967Z,100390.59
2022-10-21T08:01:31.986Z,100393.66
2022-10-21T08:04:00.369Z,100393.94
2022-10-21T08:06:29.417Z,100393.41
2022-10-21T08:08:59.030Z,100376.13
2022-10-21T08:11:29.481Z,100367.81
2022-10-21T08:13:58.706Z,100375.31
2022-10-21T08:16:27.867Z,100384.75
2022-10-21T08:18:56.775Z,100388.63
2022-10-21T08:21:24.965Z,100389.75
2022-10-21T08:23:53.115Z,100391.72
2022-10-21T08:26:22.626Z,100397.88
2022-10-21T08:28:50.836Z,100400.34
2022-10-21T08:31:22.436Z,100394.50
2022-10-21T08:33:51.206Z,100405.91
2022-10-21T08:36:22.199Z,100401.19
2022-10-21T08:38:50.799Z,100406.22
2022-10-21T08:41:54.237Z,100402.84
2022-10-21T08:44:40.901Z,100403.44
2022-10-21T08:47:19.745Z,100406.72
2022-10-21T08:49:56.991Z,100394.50
2022-10-21T08:52:32.521Z,100397.25
2022-10-21T08:55:03.743Z,100393.91
2022-10-21T08:57:35.637Z,100389.78
2022-10-21T09:00:16.298Z,100395.09
2022-10-21T09:03:11.079Z,100393.41
2022-10-21T09:06:10.418Z,100399.53
2022-10-21T09:08:53.768Z,100401.75
2022-10-21T09:11:37.004Z,100400.66
2022-10-21T09:14:47.474Z,100411.19
2022-10-21T09:17:38.322Z,100418.13
2022-10-21T09:20:24.069Z,100417.91
2022-10-21T09:23:06.400Z,100423.47
2022-10-21T09:25:42.704Z,100413.72
2022-10-21T09:28:15.221Z,100416.78
2022-10-21T09:30:46.278Z,100422.31
2022-10-21T09:33:26.822Z,100412.31
2022-10-21T09:36:03.136Z,100420.69
2022-10-21T09:38:43.481Z,100426.22
2022-10-21T09:41:19.260Z,100430.97
2022-10-21T09:43:49.057Z,100437.94
2022-10-21T09:46:19.505Z,100436.81
2022-10-21T09:49:25.899Z,100444.34
2022-10-21T09:51:42.758Z,100451.00
2022-10-21T09:54:15.981Z,100437.38
2022-10-21T09:56:50.065Z,100449.09
2022-10-21T09:59:22.691Z,100451.84
2022-10-21T10:01:52.748Z,100464.38
2022-10-21T10:04:31.018Z,100466.88
2022-10-21T10:07:01.472Z,100478.66
2022-10-21T10:09:31.913Z,100478.03
2022-10-21T10:12:05.177Z,100473.28
2022-10-21T10:14:38.355Z,100474.34
2022-10-21T10:17:29.922Z,100485.28
2022-10-21T10:20:18.266Z,100489.41
2022-10-21T10:22:48.061Z,100488.00
2022-10-21T10:25:26.417Z,100489.16
2022-10-21T10:27:56.587Z,100492.53
2022-10-21T10:30:27.778Z,100512.81
2022-10-21T10:32:58.386Z,100499.28
2022-10-21T10:35:31.825Z,100499.19
2022-10-21T10:38:02.387Z,100473.88
2022-10-21T10:40:34.113Z,100481.63
2022-10-21T10:43:07.613Z,100487.47
2022-10-21T10:45:36.548Z,100489.94
2022-10-21T10:48:07.842Z,100493.25
2022-10-21T10:50:44.541Z,100483.19
2022-10-21T10:53:32.391Z,100479.72
2022-10-21T10:56:14.004Z,100475.81
2022-10-21T10:58:49.223Z,100477.75
2022-10-21T11:01:26.092Z,100476.94
2022-10-21T11:04:03.537Z,100494.72
2022-10-21T11:06:41.389Z,100490.31
2022-10-21T11:09:10.501Z,100486.94
2022-10-21T11:11:42.617Z,100487.06
2022-10-21T11:14:18.926Z,100482.13
2022-10-21T11:17:10.621Z,100491.41
2022-10-21T11:19:50.590Z,100489.66
2022-10-21T11:22:32.119Z,100488.06
2022-10-21T11:25:15.755Z,100490.84
2022-10-21T11:28:05.004Z,100481.75
2022-10-21T11:30:41.641Z,100477.09
2022-10-21T11:33:23.267Z,100476.28
2022-10-21T11:36:02.928Z,100485.28
2022-10-21T11:38:47.570Z,100479.59
2022-10-21T11:41:28.198Z,100485.53
2022-10-21T11:44:06.957Z,100481.03
2022-10-21T11:46:51.323Z,100479.63
2022-10-21T11:49:38.415Z,100474.34
2022-10-21T11:52:18.629Z,100477.56
2022-10-21T11:55:10.090Z,100471.88
2022-10-21T11:57:49.421Z,100475.66
2022-10-21T12:00:20.881Z,100477.19
2022-10-21T12:03:11.424Z,100467.88
2022-10-21T12:05:52.566Z,100463.75
2022-10-21T12:08:27.388Z,100463.03
2022-10-21T12:11:02.788Z,100461.19
2022-10-21T12:13:36.848Z,100458.50
2022-10-21T12:16:10.776Z,100459.59
2022-10-21T12:18:44.368Z,100450.75
2022-10-21T12:21:18.797Z,100443.84
2022-10-21T12:23:55.924Z,100447.59
2022-10-21T12:26:28.480Z,100453.47
2022-10-21T12:29:03.864Z,100443.31
2022-10-21T12:31:45.766Z,100440.19
2022-10-21T12:34:15.581Z,100428.84
2022-10-21T12:36:46.700Z,100438.56
2022-10-21T12:39:51.356Z,100441.06
2022-10-21T12:42:25.589Z,100421.03
2022-10-21T12:44:54.723Z,100421.59
2022-10-21T12:47:29.602Z,100425.25
2022-10-21T12:50:20.079Z,100418.56
2022-10-21T12:53:05.134Z,100423.22
2022-10-21T12:55:40.967Z,100419.53
2022-10-21T12:58:34.401Z,100414.63
2022-10-21T13:01:03.551Z,100417.25
2022-10-21T13:03:56.382Z,100421.19
2022-10-21T13:06:56.054Z,100428.63
2022-10-21T13:09:41.474Z,100430.78
2022-10-21T13:12:31.119Z,100435.66
2022-10-21T13:15:01.686Z,100432.81
2022-10-21T13:17:53.489Z,100431.13
2022-10-21T13:20:48.760Z,100430.59
2022-10-21T13:23:43.832Z,100429.78
2022-10-21T13:26:22.053Z,100439.41
2022-10-21T13:29:19.291Z,100432.78
2022-10-21T13:31:47.667Z,100440.69
2022-10-21T13:34:30.410Z,100437.78
2022-10-21T13:36:59.282Z,100448.72
2022-10-21T13:39:32.105Z,100458.78
2022-10-21T13:42:04.341Z,100466.19
2022-10-21T13:44:38.058Z,100454.16
2022-10-21T13:47:30.171Z,100450.81
2022-10-21T13:50:16.874Z,100443.72
2022-10-21T13:52:46.077Z,100449.69
2022-10-21T13:55:22.805Z,100457.00
2022-10-21T13:57:53.913Z,100448.78
2022-10-21T14:00:27.089Z,100456.06
2022-10-21T14:03:01.679Z,100444.84
2022-10-21T14:05:38.596Z,100445.34
2022-10-21T14:08:21.594Z,100444.91
2022-10-21T14:10:49.999Z,100449.41
2022-10-21T14:13:24.161Z,100446.63
2022-10-21T14:15:53.974Z,100436.81
2022-10-21T14:18:37.176Z,100434.84
2022-10-21T14:21:06.928Z,100434.16
2022-10-21T14:23:35.768Z,100432.63
2022-10-21T14:26:08.185Z,100423.69
2022-10-21T14:28:37.962Z,100429.41
2022-10-21T14:31:12.173Z,100430.47
2022-10-21T14:33:43.463Z,100421.66
2022-10-21T14:36:16.175Z,100428.81
2022-10-21T14:38:54.012Z,100431.13
2022-10-21T14:41:26.820Z,100429.13
2022-10-21T14:43:58.872Z,100433.66
2022-10-21T14:46:28.680Z,100427.06
2022-10-21T14:49:02.501Z,100428.19
2022-10-21T14:51:38.135Z,100423.09
2022-10-21T14:54:29.280Z,100428.34
2022-10-21T14:56:58.235Z,100421.34
2022-10-21T14:59:31.880Z,100426.06
2022-10-21T15:02:02.600Z,100422.28
2022-10-21T15:04:52.323Z,100437.38
2022-10-21T15:07:29.870Z,100428.50
2022-10-21T15:10:15.753Z,100429.81
2022-10-21T15:12:45.697Z,100436.59
2022-10-21T15:15:53.413Z,100432.41
2022-10-21T15:18:26.227Z,100436.63
2022-10-21T15:20:58.322Z,100437.31
2022-10-21T15:23:31.287Z,100437.78
2022-10-21T15:26:03.667Z,100437.16
2022-10-21T15:28:33.920Z,100438.66
2022-10-21T15:31:03.359Z,100429.34
2022-10-21T15:33:32.850Z,100429.78
2022-10-21T15:36:02.796Z,100433.06
2022-10-21T15:38:30.941Z,100429.53
2022-10-21T15:40:59.166Z,100421.72
2022-10-21T15:43:27.385Z,100430.31
2022-10-21T15:45:55.686Z,100425.78
2022-10-21T15:48:24.186Z,100429.25
2022-10-21T15:50:57.219Z,100430.81
2022-10-21T15:53:25.620Z,100433.50
2022-10-21T15:55:55.023Z,100434.41
2022-10-21T15:58:23.169Z,100435.03
2022-10-21T16:00:51.392Z,100440.41
2022-10-21T16:03:19.681Z,100437.28
2022-10-21T16:05:47.860Z,100439.50
2022-10-21T16:08:17.413Z,100432.47
2022-10-21T16:10:47.856Z,100432.34
2022-10-21T16:13:16.675Z,100437.38
2022-10-21T16:15:44.932Z,100441.94
2022-10-21T16:18:15.772Z,100438.00
2022-10-21T16:20:44.837Z,100444.03
2022-10-21T16:23:13.013Z,100449.31
2022-10-21T16:25:42.542Z,100451.22
2022-10-21T16:28:13.378Z,100452.81
2022-10-21T16:30:41.966Z,100454.25
2022-10-21T16:33:11.190Z,100460.56
2022-10-21T16:35:39.452Z,100455.53
2022-10-21T16:38:07.669Z,100460.59
2022-10-21T16:40:36.878Z,100446.56
2022-10-21T16:43:06.437Z,100454.84
2022-10-21T16:45:34.701Z,100455.63
2022-10-21T16:48:05.794Z,100464.75
2022-10-21T16:50:39.784Z,100460.59
2022-10-21T16:53:08.940Z,100461.19
2022-10-21T16:55:37.146Z,100471.09
2022-10-21T16:58:06.898Z,100464.28
2022-10-21T17:00:36.355Z,100473.13
2022-10-21T17:03:05.079Z,100472.78
2022-10-21T17:08:06.593Z,100472.69
2022-10-21T17:10:43.260Z,100478.47
2022-10-21T17:13:13.480Z,100483.78
2022-10-21T17:15:41.662Z,100486.75
2022-10-21T17:18:13.136Z,100484.16
2022-10-21T17:20:44.017Z,100485.72
2022-10-21T17:23:12.719Z,100503.91
2022-10-21T17:25:41.220Z,100493.75
2022-10-21T17:28:09.443Z,100505.50
2022-10-21T17:30:39.012Z,100507.25
2022-10-21T17:33:09.443Z,100504.44
2022-10-21T17:35:40.510Z,100506.69
2022-10-21T17:38:09.562Z,100512.31
2022-10-21T17:40:37.797Z,100511.16
2022-10-21T17:43:05.976Z,100509.50
2022-10-21T17:45:34.628Z,100515.09
2022-10-21T17:48:04.427Z,100518.66
2022-10-21T17:50:32.792Z,100524.66
2022-10-21T17:53:00.953Z,100522.75
2022-10-21T17:55:29.254Z,100522.75
2022-10-21T17:57:57.473Z,100520.25
2022-10-21T18:00:25.692Z,100525.03
2022-10-21T18:02:53.909Z,100523.00
2022-10-21T18:05:23.421Z,100534.72
2022-10-21T18:07:51.555Z,100530.25
2022-10-21T18:10:19.940Z,100535.25
2022-10-21T18:12:48.121Z,100546.38
2022-10-21T18:15:16.330Z,100535.28
2022-10-21T18:17:44.513Z,100539.50
2022-10-21T18:20:13.901Z,100539.38
2022-10-21T18:22:43.509Z,100538.78
2022-10-21T18:25:12.161Z,100528.59
2022-10-21T18:27:41.086Z,100527.72
2022-10-21T18:30:11.071Z,100522.31
2022-10-21T18:32:39.836Z,100533.78
2022-10-21T18:35:09.771Z,100529.09
2022-10-21T18:37:38.259Z,100535.47
2022-10-21T18:40:10.790Z,100543.91
2022-10-21T18:42:38.943Z,100537.81
2022-10-21T18:45:08.505Z,100542.53
2022-10-21T18:47:37.324Z,100535.63
2022-10-21T18:50:08.367Z,100535.34
2022-10-21T18:52:36.518Z,100549.59
2022-10-21T18:57:39.689Z,100554.88
2022-10-21T19:00:09.755Z,100555.28
2022-10-21T19:02:38.029Z,100542.75
2022-10-21T19:05:07.323Z,100549.75
2022-10-21T19:07:35.466Z,100550.31
2022-10-21T19:10:03.706Z,100554.34
2022-10-21T19:12:31.873Z,100556.88
2022-10-21T19:15:01.391Z,100550.72
2022-10-21T19:17:29.563Z,100550.50
2022-10-21T19:19:59.254Z,100544.09
2022-10-21T19:22:27.590Z,100551.47
2022-10-21T19:24:55.919Z,100550.34
2022-10-21T19:27:24.140Z,100544.88
2022-10-21T19:29:52.711Z,100545.63
2022-10-21T19:32:22.305Z,100540.75
2022-10-21T19:34:50.433Z,100536.34
2022-10-21T19:37:18.619Z,100538.16
2022-10-21T19:39:46.815Z,100535.59
2022-10-21T19:42:14.998Z,100545.13
2022-10-21T19:44:43.184Z,100542.19
2022-10-21T19:47:11.553Z,100544.84
2022-10-21T19:49:41.370Z,100541.38
2022-10-21T19:52:09.572Z,100543.84
2022-10-21T19:54:37.770Z,100547.06
2022-10-21T19:57:05.957Z,100542.41
2022-10-21T19:59:34.113Z,100543.28
2022-10-21T20:02:02.246Z,100543.28
2022-10-21T20:04:32.558Z,100557.72
2022-10-21T20:07:04.967Z,100564.31
2022-10-21T20:09:35.098Z,100571.66
2022-10-21T20:12:06.205Z,100577.94
2022-10-21T20:14:34.347Z,100574.13
2022-10-21T20:17:02.537Z,100589.09
2022-10-21T20:19:30.717Z,100577.88
2022-10-21T20:21:58.883Z,100595.38
2022-10-21T20:24:28.464Z,100601.94
2022-10-21T20:26:59.701Z,100596.31
2022-10-21T20:29:30.390Z,100594.78
2022-10-21T20:31:58.554Z,100603.94
2022-10-21T20:34:26.921Z,100605.88
2022-10-21T20:36:55.090Z,100597.75
2022-10-21T20:39:23.253Z,100602.75
2022-10-21T20:41:52.777Z,100600.19
2022-10-21T20:44:20.948Z,100605.25
2022-10-21T20:46:49.272Z,100600.41
2022-10-21T20:49:17.454Z,100603.06
2022-10-21T20:51:45.649Z,100607.25
2022-10-21T20:54:17.158Z,100603.41
2022-10-21T20:56:46.388Z,100609.81
2022-10-21T20:59:17.282Z,100609.03
2022-10-21T21:01:48.110Z,100611.16
2022-10-21T21:04:20.636Z,100613.56
2022-10-21T21:06:50.874Z,100620.34
2022-10-21T21:09:43.618Z,100625.91
2022-10-21T21:12:10.138Z,100635.19
2022-10-21T21:14:40.049Z,100636.69
2022-10-21T21:17:08.402Z,100629.53
2022-10-21T21:19:36.673Z,100630.16
2022-10-21T21:22:05.074Z,100625.63
2022-10-21T21:24:33.548Z,100612.22
2022-10-21T21:27:01.750Z,100613.50
2022-10-21T21:29:30.006Z,100610.78
2022-10-21T21:31:59.523Z,100614.50
2022-10-21T21:34:27.674Z,100610.78
2022-10-21T21:36:55.870Z,100615.81
2022-10-21T21:39:24.341Z,100605.66
2022-10-21T21:41:52.510Z,100616.34
2022-10-21T21:44:20.629Z,100616.06
2022-10-21T21:46:48.788Z,100612.97
2022-10-21T21:49:18.398Z,100614.63
2022-10-21T21:51:46.565Z,100604.81
2022-10-21T21:54:14.726Z,100603.97
2022-10-21T21:56:42.916Z,100614.03
2022-10-21T21:59:11.130Z,100606.75
2022-10-21T22:01:39.381Z,100607.38
2022-10-21T22:04:07.686Z,100602.91
2022-10-21T22:06:38.776Z,100604.59
2022-10-21T22:09:11.528Z,100600.66
2022-10-21T22:11:40.311Z,100599.56
2022-10-21T22:14:08.573Z,100598.38
2022-10-21T22:16:36.950Z,100599.16
2022-10-21T22:19:06.046Z,100598.78
2022-10-21T22:21:34.302Z,100591.59
2022-10-21T22:24:03.813Z,100594.06
2022-10-21T22:26:32.010Z,100590.88
2022-10-21T22:29:00.183Z,100587.50
2022-10-21T22:31:30.637Z,100591.38
2022-10-21T22:34:01.031Z,100596.22
2022-10-21T22:36:29.305Z,100590.81
2022-10-21T22:38:57.565Z,100588.63
2022-10-21T22:41:27.374Z,100589.00
2022-10-21T22:43:55.533Z,100590.75
2022-10-21T22:46:38.924Z,100590.50
2022-10-21T22:49:07.398Z,100593.03
2022-10-21T22:51:36.116Z,100594.13
2022-10-21T22:54:05.632Z,100599.66
2022-10-21T22:56:40.006Z,100597.50
2022-10-21T22:59:08.436Z,100594.19
2022-10-21T23:01:36.891Z,100597.81
2022-10-21T23:04:05.498Z,100601.13
2022-10-21T23:06:35.734Z,100590.41
2022-10-21T23:09:05.372Z,100588.81
2022-10-21T23:11:34.741Z,100592.25
2022-10-21T23:14:08.650Z,100595.28
2022-10-21T23:16:37.990Z,100597.50
2022-10-21T23:19:06.928Z,100600.03
2022-10-21T23:21:35.245Z,100610.13
2022-10-21T23:24:03.880Z,100607.47
2022-10-21T23:26:32.055Z,100615.31
2022-10-21T23:29:00.245Z,100603.91
2022-10-21T23:31:29.757Z,100608.81
2022-10-21T23:33:57.925Z,100599.78
2022-10-21T23:36:26.098Z,100602.81
2022-10-21T23:38:56.727Z,100608.84
2022-10-21T23:41:25.232Z,100615.19
2022-10-21T23:43:53.547Z,100615.59
2022-10-21T23:46:21.895Z,100624.78
2022-10-21T23:48:51.627Z,100627.25
2022-10-21T23:51:20.053Z,100623.41
2022-10-21T23:53:48.325Z,100628.19
2022-10-21T23:56:16.500Z,100633.53
2022-10-21T23:58:44.732Z,100636.72
